Time;durP1;ratioP1;P1;durP2;ratioP2;P2;SDS_P1;SDS_P2;PMS_P1;PMS_P2;Temp;Humidity;BMP_temperature;BMP_pressure;BME280_temperature;BME280_humidity;BME280_pressure;Samples;Min_cycle;Max_cycle;Signal;HPM_P1;HPM_P2
2022/07/21 00:01:15;;;;;;;4.90;4.40;;;23.70;66.70;;;;;;5047660;28;20491;-68
2022/07/21 00:03:40;;;;;;;5.32;4.38;;;23.70;66.70;;;;;;5048264;28;20040;-67
2022/07/21 00:06:06;;;;;;;4.60;4.20;;;23.70;66.70;;;;;;5043454;28;20035;-67
2022/07/21 00:08:32;;;;;;;5.80;4.10;;;23.70;66.80;;;;;;5046518;28;20111;-68
2022/07/21 00:10:57;;;;;;;4.07;3.40;;;23.70;67.10;;;;;;5042427;28;20021;-69
2022/07/21 00:13:23;;;;;;;4.20;3.70;;;23.60;66.80;;;;;;5044988;28;20152;-69
2022/07/21 00:15:49;;;;;;;4.15;3.60;;;23.60;66.70;;;;;;5046613;28;20029;-69
2022/07/21 00:18:16;;;;;;;5.47;3.83;;;23.60;66.70;;;;;;5043683;28;20025;-66
2022/07/21 00:20:42;;;;;;;4.90;4.22;;;23.50;66.70;;;;;;5045066;28;20399;-67
2022/07/21 00:23:08;;;;;;;3.70;3.30;;;23.50;66.80;;;;;;5042992;28;20025;-66
2022/07/21 00:25:33;;;;;;;4.20;3.42;;;23.50;66.90;;;;;;5048644;28;20522;-67
2022/07/21 00:27:59;;;;;;;4.35;3.60;;;23.50;66.80;;;;;;5044672;28;20056;-66
2022/07/21 00:30:25;;;;;;;4.25;3.60;;;23.50;67.00;;;;;;5041567;28;20032;-66
2022/07/21 00:32:50;;;;;;;4.93;3.80;;;23.40;67.00;;;;;;5046278;28;20025;-66
2022/07/21 00:35:16;;;;;;;4.35;3.50;;;23.40;67.30;;;;;;5044281;28;20021;-66
2022/07/21 00:37:42;;;;;;;4.25;3.25;;;23.30;67.30;;;;;;5043668;28;20468;-65
2022/07/21 00:40:09;;;;;;;3.75;3.35;;;23.30;68.00;;;;;;5047104;28;20028;-66
2022/07/21 00:42:35;;;;;;;4.03;3.47;;;23.20;67.20;;;;;;5043252;28;20576;-67
2022/07/21 00:45:02;;;;;;;4.10;3.58;;;23.20;67.10;;;;;;5045172;28;20036;-67
2022/07/21 00:47:30;;;;;;;4.65;3.78;;;23.30;67.20;;;;;;5037203;28;20466;-66
2022/07/21 00:49:57;;;;;;;4.80;3.70;;;23.30;67.30;;;;;;5042105;28;20036;-68
2022/07/21 00:52:23;;;;;;;3.80;3.40;;;23.40;68.00;;;;;;5047376;28;20017;-69
2022/07/21 00:54:48;;;;;;;4.22;3.75;;;23.30;67.40;;;;;;5034521;28;20052;-68
2022/07/21 00:57:14;;;;;;;4.50;4.10;;;23.30;67.40;;;;;;5041388;28;20053;-67
2022/07/21 00:59:41;;;;;;;5.22;4.72;;;23.20;67.50;;;;;;5051254;28;20104;-68
2022/07/21 01:02:06;;;;;;;5.38;4.78;;;23.20;67.70;;;;;;5047657;28;20029;-68
2022/07/21 01:04:32;;;;;;;5.93;4.40;;;23.10;68.00;;;;;;5045499;28;20025;-66
2022/07/21 01:07:01;;;;;;;5.05;4.55;;;23.00;68.20;;;;;;5052194;28;20499;-66
2022/07/21 01:09:27;;;;;;;5.68;4.60;;;22.90;68.60;;;;;;5049253;28;20113;-66
2022/07/21 01:11:52;;;;;;;6.30;5.22;;;22.90;69.00;;;;;;5048815;28;20104;-68
2022/07/21 01:14:18;;;;;;;7.72;5.13;;;22.80;69.50;;;;;;5047109;28;20096;-67
2022/07/21 01:16:44;;;;;;;6.00;4.70;;;22.80;69.60;;;;;;5040599;28;20125;-67
2022/07/21 01:19:10;;;;;;;6.35;5.60;;;22.80;69.60;;;;;;5048414;28;20479;-68
2022/07/21 01:21:38;;;;;;;7.35;5.60;;;22.80;69.70;;;;;;5050687;28;20056;-68
2022/07/21 01:24:05;;;;;;;6.43;5.57;;;22.80;69.90;;;;;;5046068;28;20075;-66
2022/07/21 01:26:39;;;;;;;5.68;5.07;;;22.70;70.10;;;;;;5045652;28;20473;-66
2022/07/21 01:29:04;;;;;;;8.07;6.78;;;22.70;70.20;;;;;;5045454;28;20021;-68
2022/07/21 01:31:30;;;;;;;7.05;5.90;;;22.60;70.40;;;;;;5050988;28;20021;-67
2022/07/21 01:33:55;;;;;;;5.50;4.65;;;22.50;70.70;;;;;;5045815;28;20021;-67
2022/07/21 01:36:21;;;;;;;5.90;5.03;;;22.50;70.80;;;;;;5052399;28;20028;-67
2022/07/21 01:41:32;;;;;;;6.25;5.35;;;22.50;70.50;;;;;;5049102;28;20403;-67
2022/07/21 01:44:02;;;;;;;6.25;5.60;;;22.40;70.70;;;;;;5050312;28;20071;-67
2022/07/21 01:46:32;;;;;;;6.40;5.57;;;22.40;70.80;;;;;;5045849;28;20034;-67
2022/07/21 01:48:58;;;;;;;5.95;5.35;;;22.40;70.80;;;;;;5039929;28;20082;-66
2022/07/21 01:51:24;;;;;;;6.55;5.78;;;22.40;70.90;;;;;;5051566;28;20028;-66
2022/07/21 01:53:50;;;;;;;7.55;6.00;;;22.30;71.00;;;;;;5048603;28;20055;-67
2022/07/21 01:56:20;;;;;;;7.35;6.43;;;22.20;71.30;;;;;;5049232;28;20565;-66
2022/07/21 01:58:45;;;;;;;6.90;6.10;;;22.20;71.60;;;;;;5049478;28;20021;-67
2022/07/21 02:01:11;;;;;;;8.57;6.60;;;22.10;72.00;;;;;;5049718;28;20536;-68
2022/07/21 02:03:36;;;;;;;6.45;5.60;;;22.00;72.10;;;;;;5040332;28;20032;-66
2022/07/21 02:06:04;;;;;;;6.40;5.80;;;22.00;72.20;;;;;;5042611;28;20024;-69
2022/07/21 02:08:31;;;;;;;6.72;5.93;;;22.00;72.30;;;;;;5044949;28;20040;-69
2022/07/21 02:10:56;;;;;;;7.53;5.80;;;22.00;72.40;;;;;;5049484;28;20036;-68
2022/07/21 02:13:22;;;;;;;8.95;7.65;;;22.00;72.50;;;;;;5046675;28;20043;-67
2022/07/21 02:15:47;;;;;;;9.02;8.00;;;22.00;72.60;;;;;;5050690;28;20033;-67
2022/07/21 02:18:13;;;;;;;8.15;7.35;;;21.90;73.20;;;;;;5048438;28;20029;-66
2022/07/21 02:20:39;;;;;;;8.15;7.05;;;21.80;73.30;;;;;;5042036;28;20039;-66
2022/07/21 02:23:04;;;;;;;7.57;6.78;;;21.80;73.40;;;;;;5050611;28;20025;-66
2022/07/21 02:25:30;;;;;;;7.57;6.45;;;21.80;73.50;;;;;;5048611;28;20040;-67
2022/07/21 02:27:55;;;;;;;6.60;5.90;;;21.80;73.40;;;;;;5047451;28;20017;-66
2022/07/21 02:30:21;;;;;;;7.13;5.97;;;21.90;73.20;;;;;;5048940;28;20076;-67
2022/07/21 02:32:46;;;;;;;7.57;6.60;;;22.00;72.90;;;;;;5048953;28;20053;-67
2022/07/21 02:35:12;;;;;;;6.82;6.13;;;22.10;72.60;;;;;;5047976;28;20074;-67
2022/07/21 02:37:38;;;;;;;7.05;6.35;;;22.10;72.40;;;;;;5051018;28;20021;-67
2022/07/21 02:40:05;;;;;;;7.65;6.65;;;22.10;72.20;;;;;;5046857;28;20036;-67
2022/07/21 02:42:31;;;;;;;8.75;6.65;;;22.20;72.20;;;;;;5048727;28;20025;-68
2022/07/21 02:44:57;;;;;;;8.35;6.57;;;22.10;72.30;;;;;;5044375;28;20031;-69
2022/07/21 02:47:22;;;;;;;7.22;6.53;;;22.10;72.50;;;;;;5049484;28;20052;-67
2022/07/21 02:49:48;;;;;;;10.95;9.07;;;22.00;72.50;;;;;;5049599;28;20088;-67
2022/07/21 02:52:14;;;;;;;8.25;7.18;;;22.00;72.70;;;;;;5041920;28;20041;-68
2022/07/21 02:54:39;;;;;;;8.55;7.40;;;21.90;73.10;;;;;;5038046;28;20454;-67
2022/07/21 02:57:05;;;;;;;7.25;6.55;;;21.90;73.10;;;;;;5050153;28;20055;-68
2022/07/21 02:59:31;;;;;;;8.20;7.30;;;21.90;73.10;;;;;;5035265;28;20032;-68
2022/07/21 03:01:56;;;;;;;9.63;8.63;;;21.90;73.00;;;;;;5041910;28;20086;-68
2022/07/21 03:04:22;;;;;;;9.82;8.55;;;21.90;73.30;;;;;;5045701;28;20020;-68
2022/07/21 03:06:47;;;;;;;8.02;7.22;;;21.80;73.70;;;;;;5044896;28;20029;-68
2022/07/21 03:09:13;;;;;;;9.15;8.10;;;21.80;73.60;;;;;;5042790;28;20021;-69
2022/07/21 03:11:39;;;;;;;9.35;7.75;;;21.90;73.60;;;;;;5050523;28;20029;-68
2022/07/21 03:14:04;;;;;;;8.93;7.03;;;21.80;73.70;;;;;;5043200;28;20028;-68
2022/07/21 03:16:30;;;;;;;8.27;7.47;;;21.80;73.60;;;;;;5045907;28;20029;-68
2022/07/21 03:18:56;;;;;;;8.93;8.02;;;21.90;73.40;;;;;;5043280;28;20021;-69
2022/07/21 03:21:21;;;;;;;10.70;9.32;;;21.90;73.60;;;;;;5048135;28;20025;-67
2022/07/21 03:23:47;;;;;;;10.57;9.48;;;21.90;73.80;;;;;;5044071;28;20032;-67
2022/07/21 03:26:13;;;;;;;9.07;8.05;;;21.80;74.20;;;;;;5047960;28;20035;-67
2022/07/21 03:28:40;;;;;;;10.50;9.48;;;21.80;74.30;;;;;;5047936;28;20515;-67
2022/07/21 03:31:06;;;;;;;11.43;9.75;;;21.70;74.40;;;;;;5046875;28;20478;-68
2022/07/21 03:33:31;;;;;;;12.88;11.57;;;21.70;74.60;;;;;;5043793;28;20018;-67
2022/07/21 03:36:00;;;;;;;11.55;10.38;;;21.70;74.80;;;;;;5042094;28;20025;-68
2022/07/21 03:38:26;;;;;;;8.68;7.78;;;21.70;74.70;;;;;;5045661;28;20017;-67
2022/07/21 03:40:52;;;;;;;9.02;8.02;;;21.80;74.50;;;;;;5048124;28;20033;-66
2022/07/21 03:43:18;;;;;;;10.25;8.93;;;21.80;74.10;;;;;;5045707;28;20479;-66
2022/07/21 03:45:44;;;;;;;9.82;8.70;;;21.80;74.30;;;;;;5042899;28;20067;-67
2022/07/21 03:48:11;;;;;;;8.55;7.50;;;21.80;74.30;;;;;;5047957;28;20479;-67
2022/07/21 03:50:39;;;;;;;9.85;8.85;;;21.80;74.10;;;;;;5049278;28;20083;-67
2022/07/21 03:53:06;;;;;;;9.63;8.50;;;21.80;74.20;;;;;;5048885;28;20017;-67
2022/07/21 03:55:32;;;;;;;10.23;9.13;;;21.80;74.20;;;;;;5049651;28;20113;-65
2022/07/21 03:58:03;;;;;;;8.70;7.15;;;21.80;74.20;;;;;;5038414;28;20021;-67
2022/07/21 04:00:38;;;;;;;12.33;11.03;;;21.70;74.40;;;;;;5046496;28;20504;-67
2022/07/21 04:03:05;;;;;;;10.70;9.60;;;21.70;74.70;;;;;;5042008;28;20295;-67
2022/07/21 04:05:31;;;;;;;9.27;8.25;;;21.50;75.10;;;;;;5046333;28;20037;-68
2022/07/21 04:07:57;;;;;;;11.15;9.57;;;21.50;75.00;;;;;;5040904;28;20102;-68
2022/07/21 04:10:26;;;;;;;10.15;9.07;;;21.60;75.00;;;;;;5044261;28;20057;-66
2022/07/21 04:12:52;;;;;;;9.52;8.15;;;21.60;75.10;;;;;;5044650;28;20032;-67
2022/07/21 04:15:18;;;;;;;12.15;10.80;;;21.50;75.30;;;;;;5045887;28;20025;-67
2022/07/21 04:17:44;;;;;;;8.85;7.95;;;21.60;75.30;;;;;;5045699;28;20018;-66
2022/07/21 04:20:12;;;;;;;8.10;7.30;;;21.50;75.10;;;;;;5048123;28;20762;-66
2022/07/21 04:22:37;;;;;;;12.15;10.95;;;21.70;74.90;;;;;;5045640;28;20032;-68
2022/07/21 04:25:05;;;;;;;10.38;9.27;;;21.70;74.80;;;;;;5041503;28;20111;-66
2022/07/21 04:27:31;;;;;;;10.25;8.77;;;21.60;75.10;;;;;;5044811;28;20084;-67
2022/07/21 04:29:56;;;;;;;11.98;10.77;;;21.60;75.00;;;;;;5048543;28;20052;-66
2022/07/21 04:32:22;;;;;;;10.63;9.02;;;21.70;74.90;;;;;;5047839;28;20434;-67
2022/07/21 04:34:48;;;;;;;10.82;9.27;;;21.60;74.90;;;;;;5040357;28;20030;-66
2022/07/21 04:37:13;;;;;;;10.90;9.80;;;21.60;74.90;;;;;;5041943;28;20391;-66
2022/07/21 04:39:39;;;;;;;12.82;11.50;;;21.50;75.10;;;;;;5040092;28;20087;-67
2022/07/21 04:42:05;;;;;;;14.85;12.57;;;21.50;75.40;;;;;;5037061;28;20026;-67
2022/07/21 04:44:31;;;;;;;14.73;12.70;;;21.40;75.60;;;;;;5037750;28;20121;-68
2022/07/21 04:46:57;;;;;;;17.85;14.73;;;21.30;76.10;;;;;;5044771;28;20434;-69
2022/07/21 04:49:22;;;;;;;15.43;13.77;;;21.20;76.50;;;;;;5040405;28;20029;-68
2022/07/21 04:51:48;;;;;;;12.07;10.40;;;21.10;76.90;;;;;;5045873;28;20032;-68
2022/07/21 04:54:13;;;;;;;14.63;13.02;;;21.20;76.80;;;;;;5048375;28;20032;-68
2022/07/21 04:56:40;;;;;;;13.20;11.48;;;21.20;76.90;;;;;;5042917;28;20395;-66
2022/07/21 04:59:06;;;;;;;10.15;8.98;;;21.20;77.00;;;;;;5041937;28;20033;-67
2022/07/21 05:01:32;;;;;;;10.98;9.68;;;21.30;76.70;;;;;;5040426;28;20033;-67
2022/07/21 05:03:57;;;;;;;10.35;9.15;;;21.30;76.40;;;;;;5038249;28;20082;-68
2022/07/21 05:06:23;;;;;;;17.27;15.48;;;21.40;76.30;;;;;;5037518;28;20140;-68
2022/07/21 05:08:48;;;;;;;11.88;10.48;;;21.30;76.50;;;;;;5043513;28;20538;-67
2022/07/21 05:11:14;;;;;;;12.30;10.98;;;21.20;76.70;;;;;;5043801;28;20036;-67
2022/07/21 05:13:39;;;;;;;13.20;11.80;;;21.30;76.50;;;;;;5046200;28;20028;-68
2022/07/21 05:16:05;;;;;;;13.85;12.05;;;21.30;76.40;;;;;;5046661;28;20036;-67
2022/07/21 05:18:31;;;;;;;15.05;13.18;;;21.30;76.50;;;;;;5048299;28;20029;-68
2022/07/21 05:20:56;;;;;;;17.23;14.70;;;21.20;76.90;;;;;;5048588;28;20107;-68
2022/07/21 05:23:22;;;;;;;14.07;11.73;;;21.10;77.60;;;;;;5047689;28;20155;-69
2022/07/21 05:25:47;;;;;;;13.02;11.45;;;21.10;77.50;;;;;;5047793;28;20100;-69
2022/07/21 05:28:13;;;;;;;13.45;11.00;;;21.10;77.40;;;;;;5046733;28;20045;-68
2022/07/21 05:30:38;;;;;;;13.25;10.77;;;21.20;77.20;;;;;;5047691;28;20179;-67
2022/07/21 05:33:04;;;;;;;12.90;11.00;;;21.20;77.20;;;;;;5044074;28;20029;-69
2022/07/21 05:35:30;;;;;;;13.40;10.77;;;21.20;77.10;;;;;;5045536;28;20025;-68
2022/07/21 05:37:56;;;;;;;14.15;11.73;;;21.30;77.10;;;;;;5046538;28;20025;-68
2022/07/21 05:40:21;;;;;;;12.13;10.82;;;21.30;76.90;;;;;;5050359;28;20032;-68
2022/07/21 05:42:47;;;;;;;13.45;11.70;;;21.30;76.80;;;;;;5050448;28;20087;-68
2022/07/21 05:45:13;;;;;;;13.95;11.40;;;21.30;76.80;;;;;;5045857;28;20025;-68
2022/07/21 05:47:39;;;;;;;19.38;16.63;;;21.30;76.90;;;;;;5049380;28;20118;-68
2022/07/21 05:50:05;;;;;;;23.67;20.05;;;21.30;77.20;;;;;;5046422;28;20076;-67
2022/07/21 05:52:31;;;;;;;18.58;14.73;;;21.20;77.60;;;;;;5047619;28;20063;-67
2022/07/21 05:54:56;;;;;;;15.07;12.90;;;21.10;77.90;;;;;;5045618;28;20451;-68
2022/07/21 05:57:22;;;;;;;18.05;13.63;;;21.10;77.80;;;;;;5049284;28;20021;-67
2022/07/21 05:59:48;;;;;;;14.65;12.98;;;21.20;77.70;;;;;;5050370;28;20029;-67
2022/07/21 06:02:13;;;;;;;16.42;14.60;;;21.10;78.00;;;;;;5044736;28;20108;-67
2022/07/21 06:04:39;;;;;;;24.92;20.70;;;21.10;78.00;;;;;;5052589;28;20087;-67
2022/07/21 06:07:05;;;;;;;22.17;19.77;;;21.10;77.90;;;;;;5050318;28;20033;-66
2022/07/21 06:09:31;;;;;;;17.55;15.15;;;21.00;78.30;;;;;;5046675;28;20087;-68
2022/07/21 06:11:56;;;;;;;19.60;16.83;;;20.90;78.30;;;;;;5044541;28;20021;-67
2022/07/21 06:14:22;;;;;;;17.17;14.77;;;20.90;78.40;;;;;;5039795;28;20090;-68
2022/07/21 06:16:48;;;;;;;15.50;12.13;;;21.00;78.40;;;;;;5043597;28;20031;-66
2022/07/21 06:19:14;;;;;;;15.85;14.13;;;21.00;78.20;;;;;;5048737;28;20021;-66
2022/07/21 06:21:40;;;;;;;16.00;14.20;;;21.00;78.10;;;;;;5050476;28;20680;-66
2022/07/21 06:24:07;;;;;;;13.30;11.77;;;21.00;78.20;;;;;;5050703;28;20060;-66
2022/07/21 06:26:32;;;;;;;15.50;13.90;;;21.10;78.10;;;;;;5045069;28;20028;-69
2022/07/21 06:28:58;;;;;;;13.95;12.35;;;21.10;78.00;;;;;;5041855;28;20037;-68
2022/07/21 06:31:24;;;;;;;18.73;15.80;;;21.00;78.10;;;;;;5040749;28;20167;-67
2022/07/21 06:33:50;;;;;;;14.77;12.00;;;21.00;78.10;;;;;;5044404;28;20525;-67
2022/07/21 06:36:15;;;;;;;14.95;12.82;;;21.10;78.00;;;;;;5044176;28;20778;-68
2022/07/21 06:38:41;;;;;;;15.20;13.00;;;21.10;77.80;;;;;;5045968;28;20470;-66
2022/07/21 06:41:07;;;;;;;15.32;13.48;;;21.10;77.70;;;;;;5040646;28;20506;-67
2022/07/21 06:43:33;;;;;;;13.05;11.38;;;21.10;77.70;;;;;;5041864;28;20128;-67
2022/07/21 06:45:59;;;;;;;12.90;10.65;;;21.30;77.40;;;;;;5044109;28;20487;-67
2022/07/21 06:48:25;;;;;;;13.25;11.27;;;21.50;76.90;;;;;;5042972;28;20033;-67
2022/07/21 06:50:51;;;;;;;20.90;17.38;;;21.60;76.40;;;;;;5046858;28;20112;-67
2022/07/21 06:53:17;;;;;;;15.10;12.07;;;21.70;76.00;;;;;;5038057;28;20025;-67
2022/07/21 06:55:43;;;;;;;12.63;10.63;;;21.60;76.00;;;;;;5042599;28;20040;-67
2022/07/21 06:58:09;;;;;;;17.13;14.70;;;21.70;75.80;;;;;;5042714;28;20017;-67
2022/07/21 07:00:35;;;;;;;17.63;14.88;;;21.70;75.60;;;;;;5046220;28;20108;-67
2022/07/21 07:03:01;;;;;;;15.35;12.90;;;21.60;75.60;;;;;;5051158;28;20096;-68
2022/07/21 07:05:28;;;;;;;21.00;16.13;;;21.60;75.90;;;;;;5038442;28;20033;-68
2022/07/21 07:07:53;;;;;;;14.02;12.52;;;21.70;75.50;;;;;;5037320;28;20021;-67
2022/07/21 07:10:19;;;;;;;21.27;17.30;;;21.80;75.40;;;;;;5037684;28;20033;-68
2022/07/21 07:12:44;;;;;;;16.20;13.93;;;21.70;75.10;;;;;;5039725;28;20101;-68
2022/07/21 07:15:10;;;;;;;13.73;12.18;;;21.60;75.20;;;;;;5036465;28;20024;-67
2022/07/21 07:17:35;;;;;;;14.02;11.05;;;21.60;75.30;;;;;;5037161;28;20029;-67
2022/07/21 07:20:03;;;;;;;11.73;10.55;;;21.70;75.20;;;;;;5039762;28;20021;-67
2022/07/21 07:22:28;;;;;;;11.75;10.52;;;21.70;75.10;;;;;;5048865;28;20442;-69
2022/07/21 07:24:54;;;;;;;14.98;12.90;;;21.80;75.00;;;;;;5048212;28;20098;-67
2022/07/21 07:27:19;;;;;;;19.33;16.48;;;21.80;74.80;;;;;;5046015;28;20036;-67
2022/07/21 07:29:45;;;;;;;19.13;14.95;;;21.80;74.70;;;;;;5043289;28;20091;-68
2022/07/21 07:32:10;;;;;;;14.23;12.70;;;21.70;74.70;;;;;;5044077;28;20100;-68
2022/07/21 07:34:36;;;;;;;19.35;15.68;;;21.70;74.90;;;;;;5045553;28;20033;-68
2022/07/21 07:37:02;;;;;;;17.27;14.55;;;21.70;75.00;;;;;;5043308;28;20087;-68
2022/07/21 07:39:27;;;;;;;18.17;14.73;;;21.60;75.10;;;;;;5042282;28;20451;-68
2022/07/21 07:41:55;;;;;;;15.77;11.75;;;21.50;75.10;;;;;;5047802;28;20025;-67
2022/07/21 07:44:21;;;;;;;20.10;17.45;;;21.50;75.30;;;;;;5039439;28;20022;-67
2022/07/21 07:46:46;;;;;;;21.23;18.25;;;21.50;75.30;;;;;;5034797;28;20629;-67
2022/07/21 07:49:12;;;;;;;18.52;15.27;;;21.40;75.90;;;;;;5042978;28;20032;-67
2022/07/21 07:51:37;;;;;;;17.67;15.07;;;21.40;76.20;;;;;;5048167;28;20059;-68
2022/07/21 07:54:03;;;;;;;16.35;13.25;;;21.40;76.20;;;;;;5048341;28;20029;-68
2022/07/21 07:56:29;;;;;;;23.90;18.20;;;21.40;76.20;;;;;;5045426;28;20496;-68
2022/07/21 07:58:55;;;;;;;16.23;13.63;;;21.40;76.30;;;;;;5045745;28;20025;-67
2022/07/21 08:01:21;;;;;;;19.10;15.07;;;21.50;76.20;;;;;;5050129;28;20598;-67
2022/07/21 08:03:47;;;;;;;17.20;13.85;;;21.40;76.30;;;;;;5038736;28;20012;-67
2022/07/21 08:06:12;;;;;;;19.85;15.80;;;21.50;76.40;;;;;;5043667;28;20013;-68
2022/07/21 08:08:38;;;;;;;15.95;11.82;;;21.60;76.30;;;;;;5041914;28;20056;-68
2022/07/21 08:11:04;;;;;;;13.90;10.85;;;21.70;76.00;;;;;;5045488;28;20028;-68
2022/07/21 08:13:30;;;;;;;17.48;13.30;;;21.80;75.70;;;;;;5044723;28;20131;-67
2022/07/21 08:15:55;;;;;;;22.52;16.98;;;21.70;75.50;;;;;;5042266;28;20024;-67
2022/07/21 08:18:21;;;;;;;16.85;13.88;;;21.70;75.40;;;;;;5041974;28;20017;-67
2022/07/21 08:20:47;;;;;;;20.48;16.30;;;21.70;75.40;;;;;;5046999;28;20096;-67
2022/07/21 08:23:14;;;;;;;19.73;16.30;;;21.70;75.30;;;;;;5036375;28;20384;-68
2022/07/21 08:25:40;;;;;;;14.82;11.82;;;21.60;75.10;;;;;;5042205;28;20111;-68
2022/07/21 08:28:07;;;;;;;17.92;14.38;;;21.70;75.00;;;;;;5042026;28;20040;-68
2022/07/21 08:30:32;;;;;;;17.38;14.43;;;21.80;74.90;;;;;;5039231;28;20025;-68
2022/07/21 08:32:59;;;;;;;16.27;13.07;;;21.80;74.90;;;;;;5044389;28;20536;-68
2022/07/21 08:35:25;;;;;;;16.48;13.35;;;21.90;74.60;;;;;;5046013;28;20017;-68
2022/07/21 08:38:01;;;;;;;15.23;12.13;;;22.10;74.30;;;;;;5046175;28;20022;-68
2022/07/21 08:40:28;;;;;;;15.55;11.48;;;22.10;73.90;;;;;;5043181;28;20025;-68
2022/07/21 08:42:54;;;;;;;18.92;14.18;;;22.30;73.50;;;;;;5051951;28;20047;-67
2022/07/21 08:45:24;;;;;;;13.63;11.10;;;22.30;73.20;;;;;;5046403;28;20115;-68
2022/07/21 08:47:53;;;;;;;18.02;12.82;;;22.30;73.10;;;;;;5047390;28;20165;-67
2022/07/21 08:50:19;;;;;;;22.25;15.63;;;22.40;73.00;;;;;;5043694;28;20572;-67
2022/07/21 08:52:44;;;;;;;19.75;13.82;;;22.30;72.90;;;;;;5040031;28;20065;-68
2022/07/21 08:55:11;;;;;;;18.33;12.30;;;22.20;73.10;;;;;;5041148;28;20052;-69
2022/07/21 08:57:39;;;;;;;15.05;11.38;;;22.20;73.30;;;;;;5036286;28;20044;-69
2022/07/21 09:00:07;;;;;;;16.75;12.43;;;22.30;73.40;;;;;;5047339;28;20036;-69
2022/07/21 09:02:35;;;;;;;16.05;13.05;;;22.20;73.50;;;;;;5033810;28;20025;-68
2022/07/21 09:05:01;;;;;;;17.10;12.82;;;22.20;73.50;;;;;;5042218;28;20112;-69
2022/07/21 09:07:27;;;;;;;12.25;10.25;;;22.10;73.70;;;;;;5040611;28;20030;-68
2022/07/21 09:10:01;;;;;;;16.60;12.55;;;22.10;73.70;;;;;;5048681;28;20025;-67
2022/07/21 09:12:27;;;;;;;18.35;14.48;;;22.20;73.80;;;;;;5039491;28;20056;-67
2022/07/21 09:15:12;;;;;;;21.17;15.45;;;22.10;74.10;;;;;;5050469;28;20043;-67
2022/07/21 09:17:37;;;;;;;16.38;12.85;;;22.00;74.40;;;;;;5052325;28;20029;-68
2022/07/21 09:20:04;;;;;;;13.60;9.77;;;22.00;74.60;;;;;;5050229;28;20043;-68
2022/07/21 09:22:30;;;;;;;11.25;8.38;;;22.00;74.60;;;;;;5044195;28;20044;-66
2022/07/21 09:24:55;;;;;;;10.85;7.72;;;22.10;74.40;;;;;;5042787;28;20602;-67
2022/07/21 09:27:23;;;;;;;11.38;9.32;;;22.10;74.30;;;;;;5042234;28;20029;-67
2022/07/21 09:29:57;;;;;;;13.10;10.30;;;22.10;74.60;;;;;;5043186;28;20037;-67
2022/07/21 09:32:34;;;;;;;9.70;7.78;;;22.00;74.90;;;;;;5045536;28;20029;-68
2022/07/21 09:35:06;;;;;;;12.20;9.10;;;21.90;75.10;;;;;;5042944;28;20047;-68
2022/07/21 09:37:32;;;;;;;8.90;7.18;;;21.80;75.50;;;;;;5050257;28;20546;-67
2022/07/21 09:40:04;;;;;;;7.90;6.53;;;21.80;75.50;;;;;;5046276;28;20537;-67
2022/07/21 09:42:31;;;;;;;;;;;21.90;75.60;;;;;;5045771;28;20096;-66
2022/07/21 09:44:58;;;;;;;9.77;7.40;;;21.80;75.60;;;;;;5042906;28;19912;-67
2022/07/21 09:47:27;;;;;;;8.38;6.72;;;21.60;76.10;;;;;;5044370;28;20477;-67
2022/07/21 09:49:54;;;;;;;8.88;7.00;;;21.60;76.70;;;;;;5048894;28;20029;-66
2022/07/21 09:52:41;;;;;;;9.05;6.95;;;21.50;77.00;;;;;;5049733;28;20376;-67
2022/07/21 09:55:09;;;;;;;5.35;4.68;;;21.30;77.70;;;;;;5040208;28;20048;-67
2022/07/21 09:57:36;;;;;;;4.85;3.45;;;21.10;78.40;;;;;;5046071;28;20568;-67
2022/07/21 10:00:11;;;;;;;5.45;4.32;;;21.10;78.50;;;;;;5047685;28;20039;-67
2022/07/21 10:02:37;;;;;;;5.45;4.60;;;21.20;78.70;;;;;;5045227;28;20078;-67
2022/07/21 10:05:08;;;;;;;5.30;3.92;;;21.10;79.00;;;;;;5044790;28;20125;-68
2022/07/21 10:07:37;;;;;;;5.78;3.63;;;21.10;79.20;;;;;;5047659;28;20040;-68
2022/07/21 10:10:03;;;;;;;6.82;4.40;;;21.10;79.20;;;;;;5043069;28;20035;-67
2022/07/21 10:12:29;;;;;;;5.10;4.60;;;21.10;79.60;;;;;;5042548;28;20037;-67
2022/07/21 10:14:55;;;;;;;5.20;4.00;;;21.10;79.90;;;;;;5042757;28;20021;-67
2022/07/21 10:17:23;;;;;;;5.85;4.38;;;21.00;79.90;;;;;;5039342;28;20029;-67
2022/07/21 10:20:27;;;;;;;3.40;3.10;;;21.00;80.40;;;;;;5038146;28;20025;-67
2022/07/21 10:23:17;;;;;;;3.50;2.50;;;21.00;80.30;;;;;;5049118;28;20017;-67
2022/07/21 10:25:46;;;;;;;3.47;3.17;;;21.00;80.20;;;;;;5045009;28;20048;-67
2022/07/21 10:28:18;;;;;;;4.82;4.32;;;21.00;80.40;;;;;;5048412;28;20036;-67
2022/07/21 10:30:45;;;;;;;6.07;4.93;;;21.00;80.90;;;;;;5048087;28;20028;-68
2022/07/21 10:33:12;;;;;;;4.60;4.07;;;20.90;81.30;;;;;;5043978;28;20111;-68
2022/07/21 10:35:42;;;;;;;4.15;3.40;;;20.80;81.50;;;;;;5037080;28;20022;-67
2022/07/21 10:38:26;;;;;;;4.78;3.30;;;20.80;81.60;;;;;;5038676;28;20082;-67
2022/07/21 10:40:53;;;;;;;3.53;2.83;;;20.80;81.80;;;;;;5038276;28;20437;-68
2022/07/21 10:43:24;;;;;;;4.40;3.20;;;20.90;81.50;;;;;;5042285;28;20045;-68
2022/07/21 10:45:50;;;;;;;3.70;3.30;;;20.90;81.50;;;;;;5042927;28;20491;-68
2022/07/21 10:48:39;;;;;;;6.28;4.78;;;20.90;81.50;;;;;;5043919;28;20028;-67
2022/07/21 10:51:15;;;;;;;3.95;3.55;;;21.00;81.70;;;;;;5038625;28;20124;-67
2022/07/21 10:53:44;;;;;;;4.30;3.90;;;20.90;81.60;;;;;;5044198;28;20049;-67
2022/07/21 10:56:29;;;;;;;4.13;3.42;;;20.90;81.70;;;;;;5038255;28;20108;-67
2022/07/21 10:58:55;;;;;;;3.90;3.50;;;21.00;81.60;;;;;;5039297;28;20418;-67
2022/07/21 11:01:24;;;;;;;4.00;3.53;;;21.10;81.50;;;;;;5039756;28;20088;-67
2022/07/21 11:04:11;;;;;;;3.47;3.17;;;21.10;81.30;;;;;;5044438;28;20047;-68
2022/07/21 11:06:39;;;;;;;2.78;2.40;;;21.20;81.20;;;;;;5036659;28;20037;-68
2022/07/21 11:09:11;;;;;;;2.60;2.40;;;21.10;80.80;;;;;;5038809;28;20049;-68
2022/07/21 11:11:55;;;;;;;2.42;2.22;;;21.10;80.70;;;;;;5038568;28;20025;-68
2022/07/21 11:14:41;;;;;;;2.60;2.38;;;21.10;80.80;;;;;;5039159;28;20025;-68
2022/07/21 11:17:24;;;;;;;2.40;2.20;;;21.10;80.60;;;;;;5039261;28;20021;-67
2022/07/21 11:19:50;;;;;;;2.20;2.00;;;21.00;80.50;;;;;;5042518;28;20112;-68
2022/07/21 11:22:17;;;;;;;2.15;2.00;;;21.10;80.50;;;;;;5038859;28;20032;-67
2022/07/21 11:24:58;;;;;;;4.05;2.92;;;21.10;80.50;;;;;;5040252;28;20033;-67
2022/07/21 11:27:26;;;;;;;2.47;1.92;;;21.10;80.30;;;;;;5036981;28;20111;-67
2022/07/21 11:29:58;;;;;;;2.50;2.25;;;21.20;80.10;;;;;;5036003;28;20120;-68
2022/07/21 11:32:24;;;;;;;2.42;2.22;;;21.30;80.00;;;;;;5031619;28;20033;-68
2022/07/21 11:34:51;;;;;;;2.30;2.10;;;21.30;79.90;;;;;;5035834;28;20032;-68
2022/07/21 11:37:19;;;;;;;2.33;2.03;;;21.30;79.80;;;;;;5034816;28;20029;-68
2022/07/21 11:39:45;;;;;;;2.40;2.20;;;21.40;79.80;;;;;;5036643;28;20041;-68
2022/07/21 11:42:15;;;;;;;2.60;2.40;;;21.40;79.60;;;;;;5035666;28;20380;-68
2022/07/21 11:44:41;;;;;;;2.75;2.25;;;21.40;79.70;;;;;;5037378;28;20033;-67
2022/07/21 11:47:11;;;;;;;2.50;2.30;;;21.40;79.70;;;;;;5034313;28;20051;-67
2022/07/21 11:49:37;;;;;;;2.20;2.00;;;21.50;79.70;;;;;;5035912;28;20045;-67
2022/07/21 11:52:08;;;;;;;3.85;3.10;;;21.60;79.50;;;;;;5039738;28;20463;-67
2022/07/21 11:54:37;;;;;;;2.80;2.50;;;21.60;79.30;;;;;;5036343;28;20492;-67
2022/07/21 11:57:06;;;;;;;2.90;2.20;;;21.50;79.30;;;;;;5040588;28;20021;-66
2022/07/21 11:59:32;;;;;;;2.72;2.47;;;21.40;79.40;;;;;;5035777;28;20028;-67
2022/07/21 12:02:04;;;;;;;2.75;2.25;;;21.50;79.60;;;;;;5037858;28;20025;-67
2022/07/21 12:04:46;;;;;;;2.67;2.35;;;21.50;79.50;;;;;;5042814;28;20028;-68
2022/07/21 12:07:21;;;;;;;;;;;21.40;79.40;;;;;;5045313;28;20495;-67
2022/07/21 12:09:52;;;;;;;4.53;3.70;;;21.40;79.50;;;;;;5038858;28;19920;-67
2022/07/21 12:12:30;;;;;;;4.57;3.97;;;21.30;79.80;;;;;;5038756;28;20383;-67
2022/07/21 12:14:56;;;;;;;5.28;3.97;;;21.20;80.00;;;;;;5042025;28;20021;-67
2022/07/21 12:17:40;;;;;;;4.30;3.50;;;21.30;80.10;;;;;;5041700;28;20096;-67
2022/07/21 12:20:07;;;;;;;4.40;3.90;;;21.30;79.90;;;;;;5046229;28;20559;-66
2022/07/21 12:22:46;;;;;;;4.22;3.83;;;21.40;79.60;;;;;;5044389;28;20867;-67
2022/07/21 12:25:16;;;;;;;4.63;4.10;;;21.50;79.60;;;;;;5043501;28;20041;-66
2022/07/21 12:27:44;;;;;;;3.85;3.42;;;21.50;79.40;;;;;;5044979;28;20025;-66
2022/07/21 12:30:34;;;;;;;4.45;3.97;;;21.50;79.20;;;;;;5039532;28;20033;-67
2022/07/21 12:33:08;;;;;;;3.83;3.25;;;21.50;79.10;;;;;;5034743;28;20056;-67
2022/07/21 12:35:35;;;;;;;3.60;3.30;;;21.50;79.00;;;;;;5044890;28;20033;-68
2022/07/21 12:38:10;;;;;;;3.53;3.20;;;21.50;79.00;;;;;;5039308;28;20030;-68
2022/07/21 12:40:40;;;;;;;5.22;4.20;;;21.50;78.90;;;;;;5045988;28;20060;-67
2022/07/21 12:43:11;;;;;;;4.75;4.00;;;21.50;78.90;;;;;;5046463;28;20024;-69